Time;durP1;ratioP1;P1;durP2;ratioP2;P2;SDS_P1;SDS_P2;PMS_P1;PMS_P2;Temp;Humidity;BMP_temperature;BMP_pressure;BME280_temperature;BME280_humidity;BME280_pressure;Samples;Min_cycle;Max_cycle;Signal;HPM_P1;HPM_P2
2021/01/05 00:01:27;;;;;;;39.67;25.40;;;;;;;;;;6073669;29;20060;-71
2021/01/05 00:04:33;;;;;;;37.92;23.35;;;;;;;;;;6071746;29;20096;-71
2021/01/05 00:07:34;;;;;;;39.80;25.13;;;;;;;;;;6071817;29;20068;-73
2021/01/05 00:10:35;;;;;;;40.78;25.30;;;;;;;;;;6072257;29;20054;-71
2021/01/05 00:13:37;;;;;;;42.45;26.35;;;;;;;;;;6068920;29;20078;-71
2021/01/05 00:16:38;;;;;;;42.58;25.17;;;;;;;;;;6070634;29;20401;-71
2021/01/05 00:19:39;;;;;;;97.68;48.67;;;;;;;;;;6068546;29;20064;-71
2021/01/05 00:22:40;;;;;;;125.75;60.67;;;;;;;;;;6069227;29;20061;-70
2021/01/05 00:25:41;;;;;;;50.97;28.80;;;;;;;;;;6075308;29;20057;-71
2021/01/05 00:28:43;;;;;;;42.92;25.52;;;;;;;;;;6074233;29;20096;-69
2021/01/05 00:31:44;;;;;;;132.43;75.70;;;;;;;;;;6047804;29;20069;-69
2021/01/05 00:34:46;;;;;;;44.22;26.95;;;;;;;;;;6071367;29;20070;-68
2021/01/05 00:37:48;;;;;;;69.28;40.00;;;;;;;;;;6069383;29;20135;-69
2021/01/05 00:40:49;;;;;;;39.72;25.02;;;;;;;;;;6074910;29;20381;-69
2021/01/05 00:43:51;;;;;;;43.25;25.98;;;;;;;;;;6070775;29;20052;-71
2021/01/05 00:46:52;;;;;;;39.88;25.15;;;;;;;;;;6072621;29;20139;-71
2021/01/05 00:49:53;;;;;;;42.42;25.58;;;;;;;;;;6071629;29;20564;-70
2021/01/05 00:52:54;;;;;;;40.42;25.90;;;;;;;;;;6073307;29;20052;-71
2021/01/05 00:55:55;;;;;;;42.58;26.38;;;;;;;;;;6073183;29;20062;-70
2021/01/05 00:58:57;;;;;;;44.25;25.58;;;;;;;;;;6072546;29;20049;-70
2021/01/05 01:01:58;;;;;;;44.83;27.73;;;;;;;;;;6069364;29;20056;-72
2021/01/05 01:04:59;;;;;;;43.63;26.25;;;;;;;;;;6069476;29;20095;-70
2021/01/05 01:08:00;;;;;;;44.55;27.40;;;;;;;;;;6072931;29;20045;-70
2021/01/05 01:11:02;;;;;;;42.42;27.38;;;;;;;;;;6073782;29;20362;-73
2021/01/05 01:14:04;;;;;;;49.22;27.17;;;;;;;;;;6074840;29;20100;-71
2021/01/05 01:17:05;;;;;;;45.85;27.15;;;;;;;;;;6072661;29;20064;-70
2021/01/05 01:20:07;;;;;;;44.58;25.80;;;;;;;;;;6076066;29;20052;-71
2021/01/05 01:23:08;;;;;;;44.17;27.13;;;;;;;;;;6069633;29;20448;-71
2021/01/05 01:26:09;;;;;;;42.53;26.27;;;;;;;;;;6070796;29;20515;-69
2021/01/05 01:29:15;;;;;;;43.60;26.70;;;;;;;;;;6072214;29;20191;-70
2021/01/05 01:32:16;;;;;;;45.83;27.33;;;;;;;;;;6070317;29;20425;-69
2021/01/05 01:35:18;;;;;;;44.55;26.70;;;;;;;;;;6072316;29;20700;-73
2021/01/05 01:38:19;;;;;;;40.60;26.83;;;;;;;;;;6070168;29;20849;-71
2021/01/05 01:41:20;;;;;;;43.42;26.30;;;;;;;;;;6067624;29;20052;-70
2021/01/05 01:44:24;;;;;;;45.33;27.33;;;;;;;;;;6072558;29;20080;-71
2021/01/05 01:47:26;;;;;;;;;;;;;;;;;;6070971;29;20119;-71
2021/01/05 01:50:28;;;;;;;47.17;27.27;;;;;;;;;;6072058;29;20413;-70
2021/01/05 01:53:38;;;;;;;42.33;25.92;;;;;;;;;;6068102;29;20131;-70
2021/01/05 01:57:02;;;;;;;43.85;27.08;;;;;;;;;;6069697;29;20054;-70
2021/01/05 02:00:30;;;;;;;39.67;24.90;;;;;;;;;;6070663;29;20048;-70
2021/01/05 02:03:55;;;;;;;46.10;27.63;;;;;;;;;;6067376;29;20060;-70
2021/01/05 02:07:11;;;;;;;45.95;28.50;;;;;;;;;;6064631;29;20139;-70
2021/01/05 02:10:33;;;;;;;47.50;28.35;;;;;;;;;;6069894;29;20061;-70
2021/01/05 02:13:45;;;;;;;45.70;28.25;;;;;;;;;;6069373;29;20092;-70
2021/01/05 02:17:27;;;;;;;46.50;28.25;;;;;;;;;;6062726;29;20045;-70
2021/01/05 02:20:30;;;;;;;49.83;27.52;;;;;;;;;;6065795;29;20159;-70
2021/01/05 02:23:47;;;;;;;45.47;29.55;;;;;;;;;;6068412;29;20454;-70
2021/01/05 02:26:52;;;;;;;46.92;27.35;;;;;;;;;;6070543;29;20047;-70
2021/01/05 02:29:54;;;;;;;;;;;;;;;;;;6077057;29;20040;-70
2021/01/05 02:32:58;;;;;;;44.78;26.58;;;;;;;;;;6062043;29;20077;-69
2021/01/05 02:36:25;;;;;;;44.47;27.77;;;;;;;;;;6075229;29;20048;-70
2021/01/05 02:39:43;;;;;;;44.35;27.45;;;;;;;;;;6070047;29;20048;-73
2021/01/05 02:43:11;;;;;;;48.60;27.63;;;;;;;;;;6072885;29;20053;-69
2021/01/05 02:46:24;;;;;;;43.85;28.33;;;;;;;;;;6067837;29;20052;-70
2021/01/05 02:49:40;;;;;;;51.10;29.90;;;;;;;;;;6073005;29;20201;-70
2021/01/05 02:53:10;;;;;;;47.58;28.65;;;;;;;;;;6069891;29;20543;-71
2021/01/05 02:56:32;;;;;;;46.58;28.35;;;;;;;;;;6069120;29;20052;-70
2021/01/05 03:00:22;;;;;;;47.13;27.65;;;;;;;;;;6071087;29;20048;-70
2021/01/05 03:03:44;;;;;;;48.22;29.48;;;;;;;;;;6055983;29;20143;-70
2021/01/05 03:06:48;;;;;;;51.03;29.33;;;;;;;;;;6066368;29;20060;-70
2021/01/05 03:10:09;;;;;;;51.50;29.73;;;;;;;;;;6041538;29;20049;-70
2021/01/05 03:13:30;;;;;;;45.70;28.13;;;;;;;;;;6068203;29;20053;-70
2021/01/05 03:16:35;;;;;;;52.42;29.60;;;;;;;;;;6060694;29;20056;-70
2021/01/05 03:19:41;;;;;;;46.95;28.58;;;;;;;;;;6064727;29;20052;-70
2021/01/05 03:22:49;;;;;;;50.60;29.58;;;;;;;;;;6056881;29;20113;-72
2021/01/05 03:25:50;;;;;;;49.35;29.33;;;;;;;;;;6059653;29;20049;-70
2021/01/05 03:28:52;;;;;;;48.88;31.52;;;;;;;;;;6074932;29;20063;-71
2021/01/05 03:31:56;;;;;;;52.60;29.45;;;;;;;;;;6068893;29;20053;-69
2021/01/05 03:34:57;;;;;;;51.67;29.67;;;;;;;;;;6068821;29;20041;-71
2021/01/05 03:37:59;;;;;;;53.28;31.23;;;;;;;;;;6065213;29;20600;-70
2021/01/05 03:41:00;;;;;;;54.08;31.23;;;;;;;;;;6070895;29;20051;-70
2021/01/05 03:44:01;;;;;;;49.90;28.95;;;;;;;;;;6071767;29;20052;-71
2021/01/05 03:47:03;;;;;;;52.50;30.33;;;;;;;;;;6069762;29;20052;-70
2021/01/05 03:50:05;;;;;;;53.70;32.08;;;;;;;;;;6073055;29;20044;-69
2021/01/05 03:53:06;;;;;;;51.75;30.88;;;;;;;;;;6074683;29;20531;-70
2021/01/05 03:56:07;;;;;;;58.92;32.47;;;;;;;;;;6076574;29;20059;-71
2021/01/05 03:59:08;;;;;;;55.90;31.90;;;;;;;;;;6067279;29;20057;-71
2021/01/05 04:02:10;;;;;;;54.60;31.20;;;;;;;;;;6074015;29;20634;-71
2021/01/05 04:05:16;;;;;;;52.35;30.90;;;;;;;;;;6071424;29;20056;-70
2021/01/05 04:08:17;;;;;;;59.13;31.45;;;;;;;;;;6068652;29;20526;-71
2021/01/05 04:11:18;;;;;;;54.35;31.48;;;;;;;;;;6072092;29;20059;-70
2021/01/05 04:14:19;;;;;;;52.08;30.77;;;;;;;;;;6072359;29;20052;-71
2021/01/05 04:17:21;;;;;;;65.50;33.03;;;;;;;;;;6068765;29;20048;-70
2021/01/05 04:20:23;;;;;;;56.08;31.58;;;;;;;;;;6066964;29;20049;-71
2021/01/05 04:23:24;;;;;;;54.17;29.70;;;;;;;;;;6074465;29;20147;-69
2021/01/05 04:26:25;;;;;;;58.28;30.88;;;;;;;;;;6074821;29;20051;-70
2021/01/05 04:29:26;;;;;;;61.47;31.98;;;;;;;;;;6069708;29;20471;-69
2021/01/05 04:32:28;;;;;;;59.97;32.00;;;;;;;;;;6072131;29;20139;-70
2021/01/05 04:35:30;;;;;;;59.45;31.35;;;;;;;;;;6075098;29;20148;-68
2021/01/05 04:38:31;;;;;;;57.22;30.15;;;;;;;;;;6074430;29;20753;-70
2021/01/05 04:41:40;;;;;;;59.97;30.50;;;;;;;;;;6071661;29;20040;-69
2021/01/05 04:44:48;;;;;;;59.80;31.30;;;;;;;;;;6070628;29;20052;-71
2021/01/05 04:47:58;;;;;;;57.13;32.38;;;;;;;;;;6072196;29;20059;-70
2021/01/05 04:51:01;;;;;;;57.42;32.40;;;;;;;;;;6069556;29;20049;-69
2021/01/05 04:54:08;;;;;;;64.35;33.40;;;;;;;;;;6070761;29;20491;-70
2021/01/05 04:57:18;;;;;;;62.97;32.85;;;;;;;;;;6073029;29;20054;-72
2021/01/05 05:00:24;;;;;;;60.30;31.08;;;;;;;;;;6074033;29;20056;-70
2021/01/05 05:03:37;;;;;;;62.38;30.98;;;;;;;;;;6074371;29;20784;-70
2021/01/05 05:06:41;;;;;;;58.72;32.33;;;;;;;;;;6073091;29;20080;-72
2021/01/05 05:09:49;;;;;;;61.20;33.35;;;;;;;;;;6070725;29;20052;-71
2021/01/05 05:12:58;;;;;;;58.00;32.08;;;;;;;;;;6074848;29;20048;-67
2021/01/05 05:16:10;;;;;;;58.58;30.70;;;;;;;;;;6081481;29;20452;-67
2021/01/05 05:19:24;;;;;;;55.65;30.90;;;;;;;;;;6080807;29;20053;-71
2021/01/05 05:22:30;;;;;;;60.58;32.13;;;;;;;;;;6077169;29;20055;-69
2021/01/05 05:25:36;;;;;;;59.67;31.85;;;;;;;;;;6085093;29;20052;-71
2021/01/05 05:28:44;;;;;;;55.08;30.80;;;;;;;;;;6075853;29;20477;-70
2021/01/05 05:31:47;;;;;;;58.03;32.22;;;;;;;;;;6077566;29;20059;-69
2021/01/05 05:34:58;;;;;;;52.15;30.67;;;;;;;;;;6076384;29;20635;-70
2021/01/05 05:38:02;;;;;;;51.05;30.45;;;;;;;;;;6077075;29;20059;-70
2021/01/05 05:41:13;;;;;;;50.70;28.55;;;;;;;;;;6072534;29;20128;-70
2021/01/05 05:44:22;;;;;;;46.13;28.73;;;;;;;;;;6077205;29;20390;-69
2021/01/05 05:47:28;;;;;;;46.97;29.75;;;;;;;;;;6067323;29;20051;-69
2021/01/05 05:50:35;;;;;;;52.97;30.13;;;;;;;;;;6064021;29;20560;-69
2021/01/05 05:53:41;;;;;;;49.13;29.23;;;;;;;;;;6063511;29;20508;-69
2021/01/05 05:56:50;;;;;;;48.17;28.33;;;;;;;;;;6072915;29;20060;-67
2021/01/05 05:59:54;;;;;;;42.50;27.25;;;;;;;;;;6074677;29;20055;-67
2021/01/05 06:02:58;;;;;;;45.15;28.17;;;;;;;;;;6067319;29;20131;-67
2021/01/05 06:06:00;;;;;;;39.47;26.45;;;;;;;;;;6066005;29;20055;-73
2021/01/05 06:09:01;;;;;;;42.60;25.58;;;;;;;;;;6065726;29;20045;-67
2021/01/05 06:12:02;;;;;;;39.38;25.38;;;;;;;;;;6064677;29;20063;-68
2021/01/05 06:15:04;;;;;;;37.20;24.42;;;;;;;;;;6071356;29;20053;-71
2021/01/05 06:18:07;;;;;;;36.63;22.90;;;;;;;;;;6069387;29;20048;-71
2021/01/05 06:21:08;;;;;;;36.85;23.83;;;;;;;;;;6066149;29;20400;-68
2021/01/05 06:24:10;;;;;;;33.88;22.20;;;;;;;;;;6071139;29;20472;-69
2021/01/05 06:27:11;;;;;;;32.72;21.65;;;;;;;;;;6068032;29;20124;-71
2021/01/05 06:30:13;;;;;;;33.20;22.13;;;;;;;;;;6076178;29;20456;-68
2021/01/05 06:33:14;;;;;;;28.55;20.38;;;;;;;;;;6067191;29;20085;-68
2021/01/05 06:36:16;;;;;;;31.48;20.67;;;;;;;;;;6071806;29;20665;-69
2021/01/05 06:39:17;;;;;;;26.67;19.25;;;;;;;;;;6070186;29;20068;-68
2021/01/05 06:42:18;;;;;;;28.20;18.75;;;;;;;;;;6069704;29;20052;-68
2021/01/05 06:45:23;;;;;;;27.08;18.80;;;;;;;;;;6063870;29;20509;-68
2021/01/05 06:48:25;;;;;;;25.65;17.77;;;;;;;;;;6068539;29;20041;-68
2021/01/05 06:51:26;;;;;;;26.13;18.58;;;;;;;;;;6067696;29;20049;-68
2021/01/05 06:54:27;;;;;;;25.50;17.75;;;;;;;;;;6068020;29;20136;-71
2021/01/05 06:57:28;;;;;;;22.15;15.45;;;;;;;;;;6066382;29;20168;-69
2021/01/05 07:00:31;;;;;;;23.35;16.55;;;;;;;;;;6066328;29;20411;-70
2021/01/05 07:03:32;;;;;;;24.80;16.35;;;;;;;;;;6069794;29;20094;-69
2021/01/05 07:06:33;;;;;;;23.63;15.70;;;;;;;;;;6078213;29;20131;-70
2021/01/05 07:09:35;;;;;;;22.85;16.30;;;;;;;;;;6074198;29;20087;-69
2021/01/05 07:12:36;;;;;;;25.58;16.65;;;;;;;;;;6071264;29;20049;-69
2021/01/05 07:15:37;;;;;;;22.15;16.17;;;;;;;;;;6072354;29;20060;-71
2021/01/05 07:18:38;;;;;;;22.90;15.95;;;;;;;;;;6067855;29;20196;-69
2021/01/05 07:21:40;;;;;;;22.90;15.48;;;;;;;;;;6067508;29;20459;-70
2021/01/05 07:24:41;;;;;;;22.70;14.95;;;;;;;;;;6070348;29;20136;-71
2021/01/05 07:27:42;;;;;;;19.63;14.07;;;;;;;;;;6067089;29;20049;-70
2021/01/05 07:30:43;;;;;;;17.50;13.43;;;;;;;;;;6071096;29;21511;-69
2021/01/05 07:33:44;;;;;;;18.60;13.52;;;;;;;;;;6070911;29;20099;-69
2021/01/05 07:36:48;;;;;;;17.92;12.52;;;;;;;;;;6068329;29;20052;-69
2021/01/05 07:39:49;;;;;;;18.88;13.10;;;;;;;;;;6070870;29;20164;-68
2021/01/05 07:42:50;;;;;;;18.77;13.27;;;;;;;;;;6066875;29;20139;-68
2021/01/05 07:45:52;;;;;;;18.88;14.10;;;;;;;;;;6069712;29;20073;-69
2021/01/05 07:48:53;;;;;;;19.70;13.73;;;;;;;;;;6067158;29;20772;-69
2021/01/05 07:51:55;;;;;;;19.13;13.38;;;;;;;;;;6069340;29;20059;-72
2021/01/05 07:54:56;;;;;;;21.33;14.50;;;;;;;;;;6068078;29;20096;-68
2021/01/05 07:57:57;;;;;;;20.73;14.65;;;;;;;;;;6070378;29;20853;-69
2021/01/05 08:00:58;;;;;;;23.00;15.52;;;;;;;;;;6079184;29;20044;-69
2021/01/05 08:03:59;;;;;;;22.00;15.68;;;;;;;;;;6072965;29;20044;-69
2021/01/05 08:07:01;;;;;;;24.08;16.88;;;;;;;;;;6067691;29;20047;-69
2021/01/05 08:10:02;;;;;;;21.17;15.43;;;;;;;;;;6059320;29;20544;-70
2021/01/05 08:13:05;;;;;;;23.25;15.80;;;;;;;;;;6065664;29;20045;-69
2021/01/05 08:16:06;;;;;;;24.95;15.75;;;;;;;;;;6069738;29;20051;-70
2021/01/05 08:19:07;;;;;;;24.08;17.13;;;;;;;;;;6065343;29;21010;-70
2021/01/05 08:22:10;;;;;;;26.08;16.88;;;;;;;;;;6067799;29;20140;-69
2021/01/05 08:25:11;;;;;;;24.27;16.08;;;;;;;;;;6073001;29;20093;-69
2021/01/05 08:28:12;;;;;;;27.83;16.42;;;;;;;;;;6067343;29;20834;-72
2021/01/05 08:31:14;;;;;;;23.58;16.50;;;;;;;;;;6071305;29;20058;-69
2021/01/05 08:34:15;;;;;;;16.80;12.90;;;;;;;;;;5385665;29;10020674;-69
2021/01/05 08:37:17;;;;;;;23.40;16.52;;;;;;;;;;6068711;29;20206;-68
2021/01/05 08:40:20;;;;;;;22.85;15.35;;;;;;;;;;6074449;29;20501;-68
2021/01/05 08:43:21;;;;;;;21.45;15.80;;;;;;;;;;6067690;29;20152;-70
2021/01/05 08:46:23;;;;;;;21.17;15.32;;;;;;;;;;6068065;29;20757;-71
2021/01/05 08:49:24;;;;;;;21.23;14.45;;;;;;;;;;6069560;29;20148;-69
2021/01/05 08:52:26;;;;;;;19.85;14.02;;;;;;;;;;6069932;29;20055;-71
2021/01/05 08:55:27;;;;;;;16.60;13.18;;;;;;;;;;6065722;29;20155;-69
2021/01/05 08:58:28;;;;;;;16.40;12.63;;;;;;;;;;6062520;29;20063;-69
2021/01/05 09:01:29;;;;;;;15.00;12.07;;;;;;;;;;6062115;29;20502;-69
2021/01/05 09:04:30;;;;;;;18.80;12.32;;;;;;;;;;6069282;29;20056;-69
2021/01/05 09:07:32;;;;;;;20.10;14.77;;;;;;;;;;6074331;29;20044;-70
2021/01/05 09:10:33;;;;;;;25.65;16.67;;;;;;;;;;6072753;29;20075;-68
2021/01/05 09:13:37;;;;;;;19.23;14.73;;;;;;;;;;6072369;29;20060;-68
2021/01/05 09:16:38;;;;;;;18.70;14.15;;;;;;;;;;6072783;29;20045;-68
2021/01/05 09:19:39;;;;;;;19.92;13.85;;;;;;;;;;6066943;29;20484;-69
2021/01/05 09:22:41;;;;;;;17.35;13.25;;;;;;;;;;6066382;29;20068;-69
2021/01/05 09:25:42;;;;;;;18.73;13.10;;;;;;;;;;6066613;29;20045;-68
2021/01/05 09:28:43;;;;;;;21.10;14.13;;;;;;;;;;6070116;29;20484;-69
2021/01/05 09:31:46;;;;;;;16.95;13.32;;;;;;;;;;6069503;29;20509;-69
2021/01/05 09:34:47;;;;;;;18.48;12.73;;;;;;;;;;6062176;29;20611;-71
2021/01/05 09:37:49;;;;;;;17.52;11.60;;;;;;;;;;6065162;29;20057;-70
2021/01/05 09:40:50;;;;;;;20.50;14.18;;;;;;;;;;6062860;29;20095;-70
2021/01/05 09:43:51;;;;;;;18.10;13.05;;;;;;;;;;6060781;29;20045;-70
2021/01/05 09:46:56;;;;;;;16.92;12.98;;;;;;;;;;6062327;29;20060;-70
2021/01/05 09:49:57;;;;;;;15.02;11.23;;;;;;;;;;6062224;29;20492;-72
2021/01/05 09:52:59;;;;;;;18.23;12.63;;;;;;;;;;6068260;29;20051;-69
2021/01/05 09:56:00;;;;;;;17.13;11.73;;;;;;;;;;6058673;29;20500;-69
2021/01/05 09:59:01;;;;;;;16.25;11.35;;;;;;;;;;6065184;29;20108;-69
2021/01/05 10:02:03;;;;;;;15.85;11.77;;;;;;;;;;6058359;29;20052;-69
2021/01/05 10:05:05;;;;;;;20.00;12.20;;;;;;;;;;6064869;29;20056;-69
2021/01/05 10:08:08;;;;;;;15.75;11.52;;;;;;;;;;6067602;29;20056;-69
2021/01/05 10:11:09;;;;;;;14.55;11.00;;;;;;;;;;6065741;29;20067;-70
2021/01/05 10:14:11;;;;;;;13.80;10.75;;;;;;;;;;6070471;29;20060;-69
2021/01/05 10:17:12;;;;;;;15.13;11.80;;;;;;;;;;6062044;29;20148;-68
2021/01/05 10:20:15;;;;;;;18.48;12.15;;;;;;;;;;6064529;29;20071;-68
2021/01/05 10:23:17;;;;;;;17.58;10.50;;;;;;;;;;6063925;29;20147;-70
2021/01/05 10:26:18;;;;;;;14.73;9.68;;;;;;;;;;6067524;29;20053;-68
2021/01/05 10:29:19;;;;;;;12.85;9.85;;;;;;;;;;6067765;29;20055;-68
2021/01/05 10:32:20;;;;;;;14.68;10.43;;;;;;;;;;6068037;29;20044;-68
2021/01/05 10:35:23;;;;;;;18.38;11.40;;;;;;;;;;6059048;29;20135;-69
2021/01/05 10:38:25;;;;;;;12.13;10.07;;;;;;;;;;6065221;29;20044;-69
2021/01/05 10:41:32;;;;;;;13.93;10.60;;;;;;;;;;6067934;29;20131;-69
2021/01/05 10:44:34;;;;;;;14.65;10.40;;;;;;;;;;6065541;29;20056;-70
2021/01/05 10:47:35;;;;;;;16.48;10.50;;;;;;;;;;6063029;29;20132;-68
2021/01/05 10:50:39;;;;;;;14.27;11.35;;;;;;;;;;6064724;29;20069;-68
2021/01/05 10:53:41;;;;;;;16.88;10.88;;;;;;;;;;6069879;29;20741;-70
2021/01/05 10:56:42;;;;;;;14.80;10.80;;;;;;;;;;6069861;29;20159;-70
2021/01/05 10:59:43;;;;;;;13.00;9.85;;;;;;;;;;6066654;29;20147;-72
2021/01/05 11:02:44;;;;;;;13.52;8.73;;;;;;;;;;6070431;29;20053;-70
2021/01/05 11:05:45;;;;;;;12.65;8.88;;;;;;;;;;6072761;29;20048;-70
2021/01/05 11:08:47;;;;;;;13.63;8.23;;;;;;;;;;6071011;29;20058;-70
2021/01/05 11:11:53;;;;;;;11.27;8.68;;;;;;;;;;6069272;29;20103;-71
2021/01/05 11:14:54;;;;;;;14.50;9.90;;;;;;;;;;6070862;29;20048;-70
2021/01/05 11:17:55;;;;;;;15.43;10.75;;;;;;;;;;6068630;29;20059;-70
2021/01/05 11:20:56;;;;;;;17.08;12.43;;;;;;;;;;6067152;29;20059;-70
2021/01/05 11:23:58;;;;;;;15.70;11.52;;;;;;;;;;6065699;29;20528;-70
2021/01/05 11:26:59;;;;;;;13.82;10.07;;;;;;;;;;6063118;29;20059;-70
2021/01/05 11:30:00;;;;;;;14.27;9.65;;;;;;;;;;6066032;29;20044;-70
2021/01/05 11:33:01;;;;;;;11.23;9.75;;;;;;;;;;6066459;29;20056;-70
2021/01/05 11:36:02;;;;;;;12.20;8.50;;;;;;;;;;6069383;29;20483;-69
2021/01/05 11:39:05;;;;;;;15.85;9.00;;;;;;;;;;6062961;29;20124;-70
2021/01/05 11:42:07;;;;;;;11.52;8.35;;;;;;;;;;6067386;29;20044;-70
2021/01/05 11:45:10;;;;;;;10.73;7.93;;;;;;;;;;6043989;29;20053;-71
2021/01/05 11:48:11;;;;;;;9.85;7.10;;;;;;;;;;6069855;29;20168;-70
2021/01/05 11:51:19;;;;;;;11.82;7.63;;;;;;;;;;6071833;29;20061;-69
2021/01/05 11:54:21;;;;;;;14.73;9.00;;;;;;;;;;6073744;29;20131;-71
2021/01/05 11:57:22;;;;;;;9.25;6.50;;;;;;;;;;6070297;29;20088;-70
2021/01/05 12:00:24;;;;;;;8.68;6.13;;;;;;;;;;6070197;29;20056;-68
2021/01/05 12:03:25;;;;;;;7.90;6.43;;;;;;;;;;6074858;29;20084;-71
2021/01/05 12:06:26;;;;;;;8.77;6.05;;;;;;;;;;6053997;29;20732;-70
2021/01/05 12:09:29;;;;;;;11.68;7.95;;;;;;;;;;6064959;29;20087;-72
2021/01/05 12:12:30;;;;;;;8.50;6.43;;;;;;;;;;6072997;29;20127;-70
2021/01/05 12:15:31;;;;;;;8.25;5.82;;;;;;;;;;6073310;29;20048;-70
2021/01/05 12:18:32;;;;;;;7.70;6.25;;;;;;;;;;6068277;29;20727;-70
2021/01/05 12:21:35;;;;;;;7.88;6.03;;;;;;;;;;6075840;29;20053;-71
2021/01/05 12:24:38;;;;;;;8.63;6.50;;;;;;;;;;6074624;29;20041;-71
2021/01/05 12:27:39;;;;;;;9.65;6.85;;;;;;;;;;6068774;29;20060;-71
2021/01/05 12:30:40;;;;;;;9.13;6.60;;;;;;;;;;6073041;29;20063;-70
2021/01/05 12:33:41;;;;;;;8.20;6.28;;;;;;;;;;6074329;29;20048;-71
2021/01/05 12:36:43;;;;;;;6.75;5.35;;;;;;;;;;6071435;29;20052;-69
2021/01/05 12:39:45;;;;;;;6.80;3.92;;;;;;;;;;6070416;29;20084;-69
2021/01/05 12:42:46;;;;;;;5.35;3.72;;;;;;;;;;6071039;29;20161;-70
2021/01/05 12:45:47;;;;;;;7.05;4.15;;;;;;;;;;6070751;29;20071;-69
2021/01/05 12:48:48;;;;;;;6.35;5.18;;;;;;;;;;6066207;29;20144;-71
2021/01/05 12:51:55;;;;;;;7.82;5.66;;;;;;;;;;5928418;29;10000787;-69
2021/01/05 12:54:57;;;;;;;10.75;6.00;;;;;;;;;;6063952;29;20144;-69
2021/01/05 12:57:58;;;;;;;8.20;6.05;;;;;;;;;;6067158;29;20123;-69
2021/01/05 13:00:59;;;;;;;10.27;6.53;;;;;;;;;;6077251;29;20066;-69
2021/01/05 13:04:01;;;;;;;7.95;6.13;;;;;;;;;;6068233;29;20711;-71
2021/01/05 13:07:02;;;;;;;8.52;6.00;;;;;;;;;;6069714;29;20097;-70
2021/01/05 13:10:06;;;;;;;8.57;5.97;;;;;;;;;;6070552;29;20464;-69
2021/01/05 13:13:07;;;;;;;7.68;5.53;;;;;;;;;;6067810;29;20056;-69
2021/01/05 13:16:15;;;;;;;12.23;6.53;;;;;;;;;;6065310;29;20070;-68
2021/01/05 13:19:19;;;;;;;9.23;5.88;;;;;;;;;;6068537;29;20728;-69
2021/01/05 13:22:20;;;;;;;7.68;5.25;;;;;;;;;;6067894;29;20118;-69
2021/01/05 13:25:21;;;;;;;7.43;6.22;;;;;;;;;;6069368;29;20064;-69
2021/01/05 13:28:22;;;;;;;8.93;6.38;;;;;;;;;;6066172;29;20051;-68
2021/01/05 13:31:24;;;;;;;8.20;6.10;;;;;;;;;;6055158;29;20052;-69
2021/01/05 13:34:26;;;;;;;10.27;6.50;;;;;;;;;;6068260;29;20044;-69
2021/01/05 13:37:33;;;;;;;8.27;6.05;;;;;;;;;;6070549;29;20048;-69
2021/01/05 13:40:35;;;;;;;8.10;5.55;;;;;;;;;;6069730;29;20125;-69
2021/01/05 13:43:36;;;;;;;8.15;5.43;;;;;;;;;;6068327;29;20063;-70
2021/01/05 13:46:39;;;;;;;8.50;5.18;;;;;;;;;;6064434;29;20056;-71
2021/01/05 13:49:40;;;;;;;7.10;4.97;;;;;;;;;;6068731;29;20065;-69
2021/01/05 13:52:44;;;;;;;8.70;5.32;;;;;;;;;;6070116;29;20049;-68
2021/01/05 13:55:47;;;;;;;12.18;6.43;;;;;;;;;;6064626;29;20052;-69
2021/01/05 13:58:48;;;;;;;6.15;4.82;;;;;;;;;;6067279;29;20108;-72
2021/01/05 14:01:53;;;;;;;7.32;5.30;;;;;;;;;;6061001;29;20059;-72
2021/01/05 14:04:54;;;;;;;7.85;5.55;;;;;;;;;;6066411;29;20055;-75
2021/01/05 14:07:55;;;;;;;7.60;5.63;;;;;;;;;;5390348;29;10000405;-73
2021/01/05 14:10:57;;;;;;;8.98;5.38;;;;;;;;;;6069909;29;20542;-68
2021/01/05 14:13:58;;;;;;;7.28;5.68;;;;;;;;;;6054589;29;20109;-69
2021/01/05 14:17:00;;;;;;;9.25;5.30;;;;;;;;;;6072572;29;20598;-69
2021/01/05 14:20:01;;;;;;;9.15;5.68;;;;;;;;;;6062323;29;20057;-69
2021/01/05 14:23:02;;;;;;;10.60;5.75;;;;;;;;;;6066203;29;20078;-69
2021/01/05 14:26:04;;;;;;;8.75;5.90;;;;;;;;;;6066276;29;20115;-70
2021/01/05 14:29:06;;;;;;;10.77;6.53;;;;;;;;;;6069142;29;20489;-69
2021/01/05 14:32:08;;;;;;;10.50;5.88;;;;;;;;;;6071176;29;20068;-69
2021/01/05 14:35:10;;;;;;;7.43;5.65;;;;;;;;;;6066496;29;20112;-71
2021/01/05 14:38:11;;;;;;;7.50;4.95;;;;;;;;;;6064332;29;20060;-70
2021/01/05 14:41:13;;;;;;;7.45;5.13;;;;;;;;;;6061865;29;20059;-69
2021/01/05 14:44:19;;;;;;;7.47;4.97;;;;;;;;;;6069109;29;20100;-69
2021/01/05 14:47:21;;;;;;;6.80;4.75;;;;;;;;;;6069127;29;20142;-69
2021/01/05 14:50:22;;;;;;;8.10;5.97;;;;;;;;;;6061920;29;20496;-71
2021/01/05 14:53:24;;;;;;;9.75;6.10;;;;;;;;;;6069710;29;20089;-68
2021/01/05 14:56:27;;;;;;;13.68;6.85;;;;;;;;;;6063312;29;20089;-69
2021/01/05 14:59:28;;;;;;;10.15;7.65;;;;;;;;;;6057035;29;20504;-70
2021/01/05 15:02:29;;;;;;;10.63;7.47;;;;;;;;;;6070057;29;20056;-71
2021/01/05 15:05:30;;;;;;;13.75;9.00;;;;;;;;;;6064939;29;20056;-72
2021/01/05 15:08:31;;;;;;;11.48;8.07;;;;;;;;;;6063927;29;20040;-71
2021/01/05 15:11:35;;;;;;;10.93;7.63;;;;;;;;;;6068347;29;20538;-71
2021/01/05 15:14:37;;;;;;;9.85;7.30;;;;;;;;;;6064023;29;20048;-70
2021/01/05 15:17:38;;;;;;;12.20;7.82;;;;;;;;;;6036721;29;20070;-71
2021/01/05 15:20:39;;;;;;;9.23;6.65;;;;;;;;;;6070902;29;20041;-71
2021/01/05 15:23:40;;;;;;;9.45;6.60;;;;;;;;;;6072517;29;20053;-71
2021/01/05 15:26:43;;;;;;;10.05;7.40;;;;;;;;;;6065891;29;20088;-71
2021/01/05 15:29:44;;;;;;;11.88;7.85;;;;;;;;;;6073333;29;20052;-71
2021/01/05 15:32:46;;;;;;;12.90;9.10;;;;;;;;;;6068064;29;20053;-70
2021/01/05 15:35:47;;;;;;;12.52;8.25;;;;;;;;;;6069410;29;20052;-70
2021/01/05 15:38:49;;;;;;;12.35;8.45;;;;;;;;;;6068611;29;20053;-70
2021/01/05 15:41:53;;;;;;;13.70;9.77;;;;;;;;;;6069873;29;20153;-70
2021/01/05 15:44:54;;;;;;;;;;;;;;;;;;6071593;29;20396;-71
2021/01/05 15:47:55;;;;;;;10.60;8.50;;;;;;;;;;6068884;29;19927;-72
2021/01/05 15:50:57;;;;;;;13.43;9.07;;;;;;;;;;6074099;29;20053;-70
2021/01/05 15:53:58;;;;;;;13.98;9.35;;;;;;;;;;6067625;29;20072;-73
2021/01/05 15:57:00;;;;;;;14.18;8.88;;;;;;;;;;6070229;29;20574;-70
2021/01/05 16:00:01;;;;;;;10.20;7.82;;;;;;;;;;6074450;29;20523;-71
2021/01/05 16:03:03;;;;;;;9.30;6.30;;;;;;;;;;6062412;29;20151;-72
2021/01/05 16:06:08;;;;;;;7.85;5.78;;;;;;;;;;6068982;29;20511;-70
2021/01/05 16:09:10;;;;;;;4.75;3.75;;;;;;;;;;6066139;29;20049;-70
2021/01/05 16:12:12;;;;;;;5.88;3.60;;;;;;;;;;6065230;29;20174;-70
2021/01/05 16:15:14;;;;;;;3.90;2.78;;;;;;;;;;6068072;29;20143;-70
2021/01/05 16:18:15;;;;;;;4.13;2.67;;;;;;;;;;6063995;29;20048;-70
2021/01/05 16:21:16;;;;;;;3.05;2.30;;;;;;;;;;6068648;29;20136;-70
2021/01/05 16:24:17;;;;;;;2.67;1.98;;;;;;;;;;6068089;29;20064;-70
2021/01/05 16:27:19;;;;;;;2.92;2.05;;;;;;;;;;6066108;29;20055;-71
2021/01/05 16:30:24;;;;;;;3.17;1.70;;;;;;;;;;6067436;29;20646;-70
2021/01/05 16:33:26;;;;;;;1.88;1.40;;;;;;;;;;6063176;29;20053;-70
2021/01/05 16:36:28;;;;;;;2.28;1.55;;;;;;;;;;6065434;29;20076;-70
2021/01/05 16:39:29;;;;;;;2.72;1.50;;;;;;;;;;6070174;29;20052;-71
2021/01/05 16:42:31;;;;;;;1.95;1.30;;;;;;;;;;6065694;29;20455;-70
2021/01/05 16:45:32;;;;;;;1.75;1.50;;;;;;;;;;6074252;29;20044;-70
2021/01/05 16:48:33;;;;;;;1.60;1.13;;;;;;;;;;6071942;29;20063;-70
2021/01/05 16:51:34;;;;;;;3.78;1.50;;;;;;;;;;6074874;29;20139;-70
2021/01/05 16:54:36;;;;;;;2.00;1.55;;;;;;;;;;6074024;29;20080;-73
2021/01/05 16:57:38;;;;;;;1.90;1.40;;;;;;;;;;6066289;29;20049;-70
2021/01/05 17:00:39;;;;;;;1.92;1.50;;;;;;;;;;6070105;29;20057;-73
2021/01/05 17:03:40;;;;;;;1.85;1.40;;;;;;;;;;6069266;29;20620;-73
2021/01/05 17:06:42;;;;;;;2.42;1.65;;;;;;;;;;6069204;29;20044;-70
2021/01/05 17:09:44;;;;;;;2.20;1.40;;;;;;;;;;6066583;29;20048;-70
2021/01/05 17:12:46;;;;;;;2.72;1.70;;;;;;;;;;6069678;29;20483;-70
2021/01/05 17:15:47;;;;;;;2.42;1.70;;;;;;;;;;6063839;29;20045;-70
2021/01/05 17:18:48;;;;;;;2.55;1.75;;;;;;;;;;6066326;29;20608;-72
2021/01/05 17:21:49;;;;;;;2.70;1.70;;;;;;;;;;6072260;29;20056;-71
2021/01/05 17:24:50;;;;;;;2.10;1.50;;;;;;;;;;6071468;29;20176;-70
2021/01/05 17:27:52;;;;;;;2.28;1.45;;;;;;;;;;6073401;29;20045;-75
2021/01/05 17:30:53;;;;;;;1.70;1.25;;;;;;;;;;6072086;29;20057;-71
2021/01/05 17:33:54;;;;;;;1.73;1.40;;;;;;;;;;6074444;29;20125;-76
2021/01/05 17:36:55;;;;;;;2.50;1.40;;;;;;;;;;6075999;29;20427;-73
2021/01/05 17:39:56;;;;;;;2.00;1.27;;;;;;;;;;6075673;29;20099;-72
2021/01/05 17:42:59;;;;;;;1.83;1.48;;;;;;;;;;6073308;29;20421;-72
2021/01/05 17:46:00;;;;;;;1.45;1.35;;;;;;;;;;6075515;29;20591;-71
2021/01/05 17:49:02;;;;;;;2.65;1.88;;;;;;;;;;6074992;29;20407;-72
2021/01/05 17:52:04;;;;;;;2.25;1.75;;;;;;;;;;5734609;29;10000608;-71
2021/01/05 17:55:06;;;;;;;3.63;1.83;;;;;;;;;;6068462;29;20049;-73
2021/01/05 17:58:08;;;;;;;2.15;1.92;;;;;;;;;;6049371;29;20055;-72